createdAt,value
2019-03-26T00:00:56.284Z,99.99
2019-03-26T00:01:56.145Z,99.99
2019-03-26T00:02:56.195Z,99.99
2019-03-26T00:04:05.826Z,99.99
2019-03-26T00:04:57.089Z,99.99
2019-03-26T00:05:56.219Z,99.99
2019-03-26T00:06:56.096Z,99.99
2019-03-26T00:07:56.127Z,99.99
2019-03-26T00:08:56.048Z,99.99
2019-03-26T00:09:56.143Z,99.99
2019-03-26T00:10:56.031Z,99.99
2019-03-26T00:11:56.202Z,99.99
2019-03-26T00:12:56.012Z,99.99
2019-03-26T00:13:57.700Z,99.99
2019-03-26T00:14:55.982Z,99.99
2019-03-26T00:15:55.976Z,99.99
2019-03-26T00:16:55.997Z,99.99
2019-03-26T00:17:56.091Z,99.99
2019-03-26T00:18:55.945Z,99.99
2019-03-26T00:19:56.101Z,99.99
2019-03-26T00:20:55.924Z,99.99
2019-03-26T00:21:55.950Z,99.99
2019-03-26T00:22:55.912Z,99.99
2019-03-26T00:23:57.059Z,99.99
2019-03-26T00:24:55.891Z,99.99
2019-03-26T00:25:56.050Z,99.99
2019-03-26T00:26:55.893Z,99.99
2019-03-26T00:27:55.860Z,99.99
2019-03-26T00:28:55.963Z,99.99
2019-03-26T00:29:55.836Z,99.99
2019-03-26T00:30:55.970Z,99.99
2019-03-26T00:31:55.840Z,99.99
2019-03-26T00:32:55.885Z,99.99
2019-03-26T00:33:55.794Z,99.99
2019-03-26T00:34:55.900Z,99.99
2019-03-26T00:35:55.769Z,99.99
2019-03-26T00:36:55.870Z,99.99
2019-03-26T00:37:55.745Z,99.99
2019-03-26T00:38:55.824Z,99.99
2019-03-26T00:39:55.734Z,99.99
2019-03-26T00:40:55.839Z,99.99
2019-03-26T00:41:55.737Z,99.99
2019-03-26T00:42:55.856Z,99.99
2019-03-26T00:43:55.698Z,99.99
2019-03-26T00:44:55.678Z,99.99
2019-03-26T00:45:55.667Z,99.99
2019-03-26T00:46:55.835Z,99.99
2019-03-26T00:47:55.646Z,99.99
2019-03-26T00:48:55.785Z,99.99
2019-03-26T00:49:55.621Z,99.99
2019-03-26T00:50:55.616Z,99.99
2019-03-26T00:51:55.758Z,99.99
2019-03-26T00:52:55.601Z,99.99
2019-03-26T00:53:56.745Z,99.99
2019-03-26T00:54:55.578Z,99.99
2019-03-26T00:55:55.620Z,99.99
2019-03-26T00:56:55.692Z,99.99
2019-03-26T00:57:55.545Z,99.99
2019-03-26T00:58:55.640Z,99.99
2019-03-26T00:59:55.524Z,99.99
2019-03-26T01:00:55.664Z,99.99
2019-03-26T01:01:55.533Z,99.99
2019-03-26T01:02:55.493Z,99.99
2019-03-26T01:03:55.581Z,99.99
2019-03-26T01:04:56.463Z,99.71
2019-03-26T01:05:55.594Z,99.99
2019-03-26T01:06:55.466Z,99.99
2019-03-26T01:07:55.675Z,99.99
2019-03-26T01:08:55.427Z,99.99
2019-03-26T01:09:55.514Z,99.99
2019-03-26T01:10:55.411Z,99.99
2019-03-26T01:11:56.517Z,99.99
2019-03-26T01:12:55.388Z,99.40
2019-03-26T01:13:55.440Z,98.99
2019-03-26T01:14:55.370Z,99.61
2019-03-26T01:15:55.462Z,99.61
2019-03-26T01:16:55.378Z,99.82
2019-03-26T01:17:55.471Z,99.40
2019-03-26T01:18:55.329Z,99.71
2019-03-26T01:19:55.384Z,99.40
2019-03-26T01:20:55.307Z,99.82
2019-03-26T01:21:55.451Z,99.61
2019-03-26T01:22:55.294Z,98.93
2019-03-26T01:23:55.413Z,99.09
2019-03-26T01:24:55.263Z,98.99
2019-03-26T01:25:55.422Z,99.65
2019-03-26T01:26:55.273Z,99.34
2019-03-26T01:27:55.327Z,99.24
2019-03-26T01:28:55.219Z,99.44
2019-03-26T01:29:55.349Z,99.03
2019-03-26T01:30:55.208Z,98.61
2019-03-26T01:31:55.219Z,98.68
2019-03-26T01:32:55.195Z,98.72
2019-03-26T01:33:55.269Z,98.51
2019-03-26T01:34:55.163Z,98.05
2019-03-26T01:35:55.282Z,98.05
2019-03-26T01:36:55.173Z,98.20
2019-03-26T01:37:55.140Z,99.09
2019-03-26T01:38:55.130Z,98.16
2019-03-26T01:39:55.209Z,98.10
2019-03-26T01:40:55.108Z,97.64
2019-03-26T01:41:55.176Z,98.20
2019-03-26T01:42:55.075Z,98.10
2019-03-26T01:43:55.067Z,98.16
2019-03-26T01:44:55.067Z,98.20
2019-03-26T01:45:55.142Z,98.30
2019-03-26T01:46:55.068Z,98.41
2019-03-26T01:47:55.166Z,97.33
2019-03-26T01:48:55.024Z,97.37
2019-03-26T01:49:55.016Z,97.68
2019-03-26T01:50:55.004Z,97.58
2019-03-26T01:51:55.137Z,97.85
2019-03-26T01:52:54.983Z,97.33
2019-03-26T01:53:55.093Z,97.06
2019-03-26T01:54:54.965Z,97.02
2019-03-26T01:55:54.952Z,97.22
2019-03-26T01:56:54.981Z,96.33
2019-03-26T01:57:55.021Z,96.50
2019-03-26T01:58:54.919Z,96.70
2019-03-26T01:59:55.038Z,96.50
2019-03-26T02:00:54.898Z,96.91
2019-03-26T02:01:54.918Z,96.50
2019-03-26T02:02:54.882Z,96.70
2019-03-26T02:03:55.574Z,96.91
2019-03-26T02:05:00.308Z,96.54
2019-03-26T02:05:55.993Z,96.85
2019-03-26T02:06:54.860Z,96.70
2019-03-26T02:07:54.827Z,96.85
2019-03-26T02:08:54.889Z,96.91
2019-03-26T02:09:54.802Z,96.91
2019-03-26T02:10:54.904Z,96.64
2019-03-26T02:11:54.812Z,96.85
2019-03-26T02:12:54.920Z,96.64
2019-03-26T02:13:54.763Z,95.87
2019-03-26T02:14:54.829Z,95.56
2019-03-26T02:15:54.745Z,95.98
2019-03-26T02:16:54.931Z,95.92
2019-03-26T02:17:54.722Z,95.09
2019-03-26T02:18:54.852Z,95.09
2019-03-26T02:19:54.706Z,94.57
2019-03-26T02:20:54.776Z,94.88
2019-03-26T02:21:54.705Z,94.46
2019-03-26T02:22:54.776Z,94.15
2019-03-26T02:23:54.663Z,94.05
2019-03-26T02:24:54.653Z,94.05
2019-03-26T02:25:54.637Z,94.05
2019-03-26T02:26:54.762Z,93.95
2019-03-26T02:27:54.624Z,93.80
2019-03-26T02:28:54.714Z,93.63
2019-03-26T02:29:54.600Z,93.53
2019-03-26T02:30:54.587Z,93.74
2019-03-26T02:31:54.708Z,94.26
2019-03-26T02:32:54.588Z,94.26
2019-03-26T02:33:54.649Z,94.15
2019-03-26T02:34:54.550Z,94.26
2019-03-26T02:35:54.661Z,94.26
2019-03-26T02:36:54.560Z,94.15
2019-03-26T02:37:54.569Z,94.88
2019-03-26T02:38:54.504Z,95.09
2019-03-26T02:39:54.584Z,94.78
2019-03-26T02:40:54.486Z,94.98
2019-03-26T02:41:54.558Z,94.67
2019-03-26T02:42:54.470Z,94.57
2019-03-26T02:43:54.599Z,94.05
2019-03-26T02:44:54.445Z,93.63
2019-03-26T02:45:54.525Z,94.15
2019-03-26T02:46:54.438Z,94.36
2019-03-26T02:47:54.402Z,93.63
2019-03-26T02:48:54.398Z,93.84
2019-03-26T02:49:54.504Z,93.74
2019-03-26T02:50:54.379Z,93.74
2019-03-26T02:51:54.543Z,94.15
2019-03-26T02:52:54.350Z,94.26
2019-03-26T02:53:54.350Z,93.32
2019-03-26T02:54:54.347Z,93.01
2019-03-26T02:55:54.381Z,93.28
2019-03-26T02:56:54.356Z,93.32
2019-03-26T02:57:54.394Z,92.90
2019-03-26T02:58:54.342Z,92.76
2019-03-26T02:59:54.292Z,92.76
2019-03-26T03:00:54.383Z,92.69
2019-03-26T03:01:54.302Z,92.66
2019-03-26T03:02:54.336Z,92.55
2019-03-26T03:03:54.255Z,92.38
2019-03-26T03:04:54.367Z,92.55
2019-03-26T03:05:54.229Z,92.86
2019-03-26T03:06:54.303Z,92.59
2019-03-26T03:07:54.218Z,92.86
2019-03-26T03:08:54.266Z,93.38
2019-03-26T03:09:54.208Z,92.97
2019-03-26T03:10:54.180Z,92.80
2019-03-26T03:11:54.193Z,92.86
2019-03-26T03:12:55.214Z,92.90
2019-03-26T03:13:54.149Z,93.53
2019-03-26T03:14:54.205Z,93.32
2019-03-26T03:15:54.132Z,93.59
2019-03-26T03:16:54.150Z,94.15
2019-03-26T03:17:54.111Z,93.43
2019-03-26T03:18:54.233Z,93.84
2019-03-26T03:19:54.089Z,93.80
2019-03-26T03:20:54.143Z,93.74
2019-03-26T03:21:54.101Z,93.95
2019-03-26T03:22:54.054Z,94.05
2019-03-26T03:23:54.193Z,93.95
2019-03-26T03:24:54.035Z,93.95
2019-03-26T03:25:54.075Z,94.01
2019-03-26T03:26:54.029Z,94.67
2019-03-26T03:27:54.087Z,93.74
2019-03-26T03:28:53.987Z,94.05
2019-03-26T03:29:54.097Z,93.63
2019-03-26T03:30:53.971Z,94.05
2019-03-26T03:31:56.108Z,93.53
2019-03-26T03:32:53.957Z,93.28
2019-03-26T03:33:54.011Z,93.22
2019-03-26T03:34:53.925Z,92.80
2019-03-26T03:35:54.961Z,93.63
2019-03-26T03:36:53.936Z,93.84
2019-03-26T03:37:53.952Z,92.90
2019-03-26T03:38:53.895Z,93.43
2019-03-26T03:39:53.876Z,92.90
2019-03-26T03:40:53.859Z,91.86
2019-03-26T03:41:53.922Z,92.07
2019-03-26T03:42:53.833Z,91.45
2019-03-26T03:43:53.884Z,92.07
2019-03-26T03:44:53.835Z,90.52
2019-03-26T03:45:53.817Z,89.79
2019-03-26T03:46:53.845Z,90.48
2019-03-26T03:47:53.913Z,88.92
2019-03-26T03:48:53.788Z,89.13
2019-03-26T03:49:53.828Z,87.51
2019-03-26T03:50:53.782Z,87.05
2019-03-26T03:51:53.783Z,85.81
2019-03-26T03:52:53.837Z,86.85
2019-03-26T03:53:53.737Z,86.22
2019-03-26T03:54:53.860Z,86.85
2019-03-26T03:55:53.709Z,87.37
2019-03-26T03:56:53.824Z,87.16
2019-03-26T03:57:53.684Z,87.37
2019-03-26T03:58:53.782Z,86.85
2019-03-26T03:59:53.664Z,86.43
2019-03-26T04:00:53.700Z,87.05
2019-03-26T04:01:53.686Z,86.43
2019-03-26T04:02:53.635Z,86.43
2019-03-26T04:03:53.622Z,86.85
2019-03-26T04:04:53.718Z,87.37
2019-03-26T04:06:08.319Z,88.09
2019-03-26T04:06:54.637Z,88.20
2019-03-26T04:07:53.631Z,88.30
2019-03-26T04:08:53.651Z,88.51
2019-03-26T04:09:53.573Z,88.71
2019-03-26T04:10:53.671Z,89.17
2019-03-26T04:11:53.577Z,89.03
2019-03-26T04:12:53.565Z,89.06
2019-03-26T04:13:53.529Z,89.44
2019-03-26T04:14:53.516Z,88.92
2019-03-26T04:15:53.499Z,90.27
2019-03-26T04:16:53.660Z,89.34
2019-03-26T04:17:53.481Z,89.27
2019-03-26T04:18:53.500Z,89.65
2019-03-26T04:19:53.464Z,89.65
2019-03-26T04:20:53.453Z,89.23
2019-03-26T04:21:53.588Z,89.23
2019-03-26T04:22:53.437Z,90.27
2019-03-26T04:23:53.534Z,89.75
2019-03-26T04:24:53.422Z,90.00
2019-03-26T04:25:53.461Z,90.17
2019-03-26T04:26:53.433Z,90.41
2019-03-26T04:27:53.467Z,89.37
2019-03-26T04:28:53.371Z,90.27
2019-03-26T04:29:53.475Z,89.96
2019-03-26T04:30:53.356Z,90.58
2019-03-26T04:31:53.371Z,90.48
2019-03-26T04:32:53.328Z,90.58
2019-03-26T04:33:53.390Z,90.89
2019-03-26T04:34:53.314Z,90.89
2019-03-26T04:35:53.428Z,91.24
2019-03-26T04:36:53.319Z,90.58
2019-03-26T04:37:53.286Z,90.48
2019-03-26T04:38:53.267Z,90.58
2019-03-26T04:39:53.347Z,90.62
2019-03-26T04:40:53.245Z,90.48
2019-03-26T04:41:53.311Z,89.96
2019-03-26T04:42:53.229Z,90.06
2019-03-26T04:43:53.319Z,90.37
2019-03-26T04:44:53.257Z,89.96
2019-03-26T04:45:53.215Z,89.96
2019-03-26T04:46:53.339Z,89.13
2019-03-26T04:47:53.176Z,89.03
2019-03-26T04:48:53.292Z,89.23
2019-03-26T04:49:53.154Z,89.34
2019-03-26T04:50:53.308Z,88.92
2019-03-26T04:51:53.153Z,88.30
2019-03-26T04:52:53.315Z,88.30
2019-03-26T04:53:53.109Z,88.30
2019-03-26T04:54:53.114Z,88.20
2019-03-26T04:55:53.083Z,88.75
2019-03-26T04:56:53.312Z,88.30
2019-03-26T04:57:53.074Z,88.30
2019-03-26T04:58:53.260Z,87.78
2019-03-26T04:59:53.055Z,87.51
2019-03-26T05:00:53.059Z,87.37
2019-03-26T05:01:53.066Z,87.37
2019-03-26T05:02:53.199Z,85.08
2019-03-26T05:03:53.090Z,85.39
2019-03-26T05:04:53.199Z,85.08
2019-03-26T05:05:52.999Z,85.71
2019-03-26T05:06:53.015Z,85.50
2019-03-26T05:07:53.116Z,85.91
2019-03-26T05:08:52.960Z,85.19
2019-03-26T05:09:53.131Z,85.29
2019-03-26T05:10:52.943Z,85.71
2019-03-26T05:11:53.092Z,85.60
2019-03-26T05:12:52.914Z,85.81
2019-03-26T05:13:53.054Z,84.67
2019-03-26T05:14:52.899Z,84.56
2019-03-26T05:15:53.066Z,85.29
2019-03-26T05:16:52.919Z,84.88
2019-03-26T05:17:56.519Z,84.56
2019-03-26T05:18:52.865Z,84.25
2019-03-26T05:19:52.995Z,85.35
2019-03-26T05:20:52.843Z,85.71
2019-03-26T05:21:53.006Z,85.81
2019-03-26T05:22:52.851Z,85.71
2019-03-26T05:23:52.811Z,85.08
2019-03-26T05:24:52.797Z,85.39
2019-03-26T05:25:52.940Z,85.29
2019-03-26T05:26:52.784Z,85.08
2019-03-26T05:27:52.944Z,85.71
2019-03-26T05:28:52.789Z,85.08
2019-03-26T05:29:52.741Z,85.60
2019-03-26T05:30:52.729Z,85.19
2019-03-26T05:31:53.790Z,86.02
2019-03-26T05:32:52.714Z,86.54
2019-03-26T05:33:52.779Z,86.64
2019-03-26T05:34:52.724Z,86.12
2019-03-26T05:35:52.687Z,85.60
2019-03-26T05:36:52.702Z,85.19
2019-03-26T05:37:52.672Z,85.39
2019-03-26T05:38:53.743Z,84.67
2019-03-26T05:39:52.646Z,84.67
2019-03-26T05:40:52.787Z,84.36
2019-03-26T05:41:52.632Z,84.05
2019-03-26T05:42:52.637Z,84.15
2019-03-26T05:43:52.603Z,84.42
2019-03-26T05:44:52.649Z,83.90
2019-03-26T05:45:52.581Z,83.69
2019-03-26T05:46:52.606Z,83.48
2019-03-26T05:47:52.560Z,83.53
2019-03-26T05:48:52.577Z,84.31
2019-03-26T05:49:52.546Z,83.63
2019-03-26T05:50:52.589Z,83.01
2019-03-26T05:51:52.522Z,83.17
2019-03-26T05:52:52.547Z,83.07
2019-03-26T05:53:52.495Z,83.59
2019-03-26T05:54:52.518Z,83.17
2019-03-26T05:55:52.483Z,83.69
2019-03-26T05:56:52.528Z,83.53
2019-03-26T05:57:52.459Z,84.36
2019-03-26T05:58:52.483Z,84.63
2019-03-26T05:59:52.545Z,84.05
2019-03-26T06:00:52.432Z,84.21
2019-03-26T06:01:52.513Z,83.53
2019-03-26T06:02:52.405Z,84.31
2019-03-26T06:03:52.492Z,84.15
2019-03-26T06:04:52.481Z,83.48
2019-03-26T06:05:52.377Z,82.90
2019-03-26T06:07:04.220Z,83.48
2019-03-26T06:07:53.352Z,83.90
2019-03-26T06:08:52.403Z,83.07
2019-03-26T06:09:52.335Z,82.76
2019-03-26T06:10:52.324Z,82.86
2019-03-26T06:11:52.379Z,82.97
2019-03-26T06:12:52.331Z,82.76
2019-03-26T06:13:52.292Z,82.93
2019-03-26T06:14:52.347Z,83.14
2019-03-26T06:15:52.269Z,83.55
2019-03-26T06:16:52.291Z,83.76
2019-03-26T06:17:52.457Z,82.41
2019-03-26T06:18:52.246Z,83.03
2019-03-26T06:19:52.366Z,83.59
2019-03-26T06:20:52.214Z,83.48
2019-03-26T06:21:52.444Z,82.76
2019-03-26T06:22:52.205Z,83.07
2019-03-26T06:23:53.689Z,82.72
2019-03-26T06:24:52.182Z,82.72
2019-03-26T06:25:52.229Z,82.41
2019-03-26T06:26:52.183Z,82.10
2019-03-26T06:27:52.226Z,81.99
2019-03-26T06:28:52.138Z,82.20
2019-03-26T06:29:52.143Z,82.72
2019-03-26T06:30:52.113Z,81.79
2019-03-26T06:31:52.209Z,82.48
2019-03-26T06:32:52.095Z,83.24
2019-03-26T06:33:52.089Z,83.45
2019-03-26T06:34:52.076Z,84.07
2019-03-26T06:35:52.081Z,84.59
2019-03-26T06:36:52.086Z,84.69
2019-03-26T06:37:52.092Z,84.90
2019-03-26T06:38:52.036Z,85.42
2019-03-26T06:39:52.015Z,86.08
2019-03-26T06:40:52.011Z,87.01
2019-03-26T06:41:52.069Z,88.01
2019-03-26T06:42:52.039Z,86.39
2019-03-26T06:43:52.030Z,87.22
2019-03-26T06:44:51.971Z,87.95
2019-03-26T06:45:51.955Z,86.18
2019-03-26T06:46:52.004Z,86.91
2019-03-26T06:47:51.941Z,86.60
2019-03-26T06:48:51.964Z,87.32
2019-03-26T06:49:51.918Z,88.36
2019-03-26T06:50:51.980Z,87.95
2019-03-26T06:51:51.921Z,88.05
2019-03-26T06:52:53.528Z,88.36
2019-03-26T06:53:51.878Z,88.67
2019-03-26T06:54:52.030Z,89.40
2019-03-26T06:55:51.856Z,89.04
2019-03-26T06:56:51.878Z,88.73
2019-03-26T06:57:51.828Z,88.63
2019-03-26T06:58:51.930Z,88.42
2019-03-26T06:59:51.818Z,88.63
2019-03-26T07:00:51.838Z,88.63
2019-03-26T07:01:51.818Z,88.11
2019-03-26T07:02:51.787Z,87.97
2019-03-26T07:03:51.773Z,88.21
2019-03-26T07:04:51.759Z,87.90
2019-03-26T07:05:51.755Z,88.28
2019-03-26T07:06:51.922Z,87.28
2019-03-26T07:07:51.709Z,87.90
2019-03-26T07:08:51.717Z,88.32
2019-03-26T07:09:51.875Z,88.63
2019-03-26T07:10:51.700Z,86.93
2019-03-26T07:11:51.850Z,86.25
2019-03-26T07:12:51.675Z,86.00
2019-03-26T07:13:51.728Z,86.52
2019-03-26T07:14:51.658Z,87.04
2019-03-26T07:15:51.738Z,86.41
2019-03-26T07:16:51.659Z,87.14
2019-03-26T07:17:52.522Z,86.62
2019-03-26T07:18:51.602Z,86.52
2019-03-26T07:19:51.751Z,86.58
2019-03-26T07:20:51.592Z,86.58
2019-03-26T07:21:51.712Z,86.13
2019-03-26T07:22:51.576Z,85.40
2019-03-26T07:23:51.590Z,85.61
2019-03-26T07:24:51.550Z,85.36
2019-03-26T07:25:51.546Z,86.19
2019-03-26T07:26:51.559Z,85.32
2019-03-26T07:27:51.695Z,85.05
2019-03-26T07:28:51.509Z,82.46
2019-03-26T07:29:51.609Z,82.46
2019-03-26T07:30:51.488Z,82.36
2019-03-26T07:31:51.510Z,83.25
2019-03-26T07:32:51.628Z,82.22
2019-03-26T07:33:51.456Z,82.74
2019-03-26T07:34:52.566Z,82.01
2019-03-26T07:35:51.439Z,81.91
2019-03-26T07:36:55.603Z,81.91
2019-03-26T07:37:51.557Z,82.22
2019-03-26T07:38:51.413Z,81.49
2019-03-26T07:39:53.521Z,82.18
2019-03-26T07:40:51.400Z,81.77
2019-03-26T07:41:55.638Z,81.05
2019-03-26T07:42:51.369Z,81.15
2019-03-26T07:43:52.353Z,80.94
2019-03-26T07:44:52.426Z,80.63
2019-03-26T07:45:51.331Z,81.56
2019-03-26T07:46:51.471Z,80.74
2019-03-26T07:47:51.312Z,81.35
2019-03-26T07:48:51.431Z,80.94
2019-03-26T07:49:51.307Z,81.05
2019-03-26T07:50:51.440Z,81.21
2019-03-26T07:51:51.300Z,80.60
2019-03-26T07:52:51.349Z,80.70
2019-03-26T07:53:51.252Z,81.11
2019-03-26T07:54:51.238Z,81.11
2019-03-26T07:55:51.230Z,81.01
2019-03-26T07:56:51.434Z,79.56
2019-03-26T07:57:51.198Z,80.76
2019-03-26T07:58:51.274Z,79.94
2019-03-26T07:59:51.187Z,79.42
2019-03-26T08:00:51.177Z,79.56
2019-03-26T08:01:51.197Z,80.29
2019-03-26T08:02:51.247Z,80.15
2019-03-26T08:03:51.144Z,80.04
2019-03-26T08:04:51.231Z,80.76
2019-03-26T08:05:51.132Z,81.04
2019-03-26T08:06:51.242Z,79.90
2019-03-26T08:07:58.273Z,79.28
2019-03-26T08:08:52.082Z,79.28
2019-03-26T08:09:51.264Z,79.80
2019-03-26T08:10:51.070Z,80.04
2019-03-26T08:11:51.223Z,81.07
2019-03-26T08:12:51.069Z,81.18
2019-03-26T08:13:51.185Z,81.11
2019-03-26T08:14:51.034Z,81.84
2019-03-26T08:15:51.211Z,83.39
2019-03-26T08:16:51.083Z,83.49
2019-03-26T08:17:51.006Z,83.86
2019-03-26T08:18:50.996Z,84.11
2019-03-26T08:19:51.124Z,83.80
2019-03-26T08:20:50.957Z,84.00
2019-03-26T08:21:51.021Z,83.28
2019-03-26T08:22:50.939Z,85.10
2019-03-26T08:23:50.921Z,84.73
2019-03-26T08:24:50.923Z,84.28
2019-03-26T08:25:52.088Z,84.00
2019-03-26T08:26:52.128Z,83.49
2019-03-26T08:27:50.960Z,82.87
2019-03-26T08:28:50.879Z,81.80
2019-03-26T08:29:50.873Z,83.39
2019-03-26T08:30:52.015Z,83.86
2019-03-26T08:31:50.881Z,83.55
2019-03-26T08:32:50.995Z,83.25
2019-03-26T08:33:50.826Z,84.28
2019-03-26T08:34:50.916Z,83.86
2019-03-26T08:35:50.815Z,83.45
2019-03-26T08:36:50.972Z,84.13
2019-03-26T08:37:50.780Z,82.89
2019-03-26T08:38:50.945Z,83.10
2019-03-26T08:39:50.768Z,83.62
2019-03-26T08:40:50.758Z,82.79
2019-03-26T08:41:50.779Z,83.83
2019-03-26T08:42:50.869Z,84.34
2019-03-26T08:43:50.719Z,84.86
2019-03-26T08:44:50.878Z,85.89
2019-03-26T08:45:50.698Z,86.34
2019-03-26T08:46:50.690Z,86.76
2019-03-26T08:47:50.710Z,85.10
2019-03-26T08:48:50.893Z,83.90
2019-03-26T08:49:50.662Z,86.01
2019-03-26T08:50:50.819Z,86.49
2019-03-26T08:51:50.645Z,85.91
2019-03-26T08:52:50.621Z,87.46
2019-03-26T08:53:50.797Z,86.42
2019-03-26T08:54:50.608Z,86.25
2019-03-26T08:55:50.752Z,86.98
2019-03-26T08:56:50.586Z,86.73
2019-03-26T08:57:51.683Z,86.11
2019-03-26T08:58:50.566Z,86.73
2019-03-26T08:59:50.731Z,86.28
2019-03-26T09:00:50.553Z,86.59
2019-03-26T09:01:50.687Z,86.03
2019-03-26T09:02:50.586Z,85.68
2019-03-26T09:03:50.499Z,85.99
2019-03-26T09:04:50.498Z,85.75
2019-03-26T09:05:50.670Z,84.30
2019-03-26T09:06:50.482Z,83.68
2019-03-26T09:07:50.624Z,83.10
2019-03-26T09:08:50.462Z,83.20
2019-03-26T09:09:50.441Z,83.17
2019-03-26T09:10:51.868Z,83.89
2019-03-26T09:11:50.606Z,83.89
2019-03-26T09:12:50.405Z,83.27
2019-03-26T09:13:57.122Z,83.20
2019-03-26T09:14:50.405Z,83.10
2019-03-26T09:15:50.389Z,83.10
2019-03-26T09:16:51.510Z,83.93
2019-03-26T09:17:50.391Z,84.34
2019-03-26T09:18:51.418Z,84.55
2019-03-26T09:19:50.346Z,84.44
2019-03-26T09:20:50.510Z,84.13
2019-03-26T09:21:50.338Z,82.89
2019-03-26T09:22:50.419Z,84.13
2019-03-26T09:23:50.300Z,85.17
2019-03-26T09:24:50.428Z,85.13
2019-03-26T09:25:50.280Z,84.81
2019-03-26T09:26:50.303Z,85.02
2019-03-26T09:27:52.496Z,83.37
2019-03-26T09:28:50.307Z,83.78
2019-03-26T09:29:50.242Z,83.89
2019-03-26T09:30:50.316Z,83.78
2019-03-26T09:31:50.242Z,83.68
2019-03-26T09:32:50.284Z,84.09
2019-03-26T09:33:50.199Z,85.23
2019-03-26T09:34:50.230Z,83.89
2019-03-26T09:35:50.168Z,83.68
2019-03-26T09:36:50.309Z,83.78
2019-03-26T09:37:50.166Z,84.20
2019-03-26T09:38:50.136Z,83.37
2019-03-26T09:39:50.129Z,84.20
2019-03-26T09:40:50.229Z,83.93
2019-03-26T09:41:50.155Z,83.83
2019-03-26T09:42:50.188Z,84.13
2019-03-26T09:43:50.089Z,84.96
2019-03-26T09:44:50.089Z,85.44
2019-03-26T09:45:50.067Z,85.85
2019-03-26T09:46:50.170Z,85.13
2019-03-26T09:47:50.091Z,84.41
2019-03-26T09:48:50.171Z,84.61
2019-03-26T09:49:50.044Z,85.17
2019-03-26T09:50:50.025Z,85.44
2019-03-26T09:51:50.012Z,85.02
2019-03-26T09:52:50.111Z,85.85
2019-03-26T09:53:50.020Z,86.12
2019-03-26T09:54:50.064Z,85.05
2019-03-26T09:55:49.977Z,85.11
2019-03-26T09:56:49.958Z,83.94
2019-03-26T09:57:50.011Z,81.51
2019-03-26T09:58:49.940Z,82.40
2019-03-26T09:59:51.033Z,82.60
2019-03-26T10:00:50.125Z,82.15
2019-03-26T10:01:50.014Z,82.19
2019-03-26T10:02:49.898Z,81.37
2019-03-26T10:03:49.981Z,81.20
2019-03-26T10:04:50.875Z,81.40
2019-03-26T10:05:51.935Z,82.91
2019-03-26T10:06:49.890Z,83.53
2019-03-26T10:07:49.852Z,81.77
2019-03-26T10:08:52.753Z,81.77
2019-03-26T10:09:49.915Z,83.28
2019-03-26T10:10:49.814Z,83.28
2019-03-26T10:11:49.985Z,82.15
2019-03-26T10:12:49.799Z,83.04
2019-03-26T10:13:49.781Z,81.39
2019-03-26T10:14:49.845Z,80.98
2019-03-26T10:15:49.764Z,82.93
2019-03-26T10:16:49.916Z,81.53
2019-03-26T10:17:49.746Z,80.91
2019-03-26T10:18:49.870Z,82.91
2019-03-26T10:19:49.719Z,82.02
2019-03-26T10:20:49.779Z,82.95
2019-03-26T10:21:49.726Z,83.61
2019-03-26T10:22:49.799Z,85.22
2019-03-26T10:23:49.677Z,83.98
2019-03-26T10:24:49.677Z,84.12
2019-03-26T10:25:49.663Z,84.53
2019-03-26T10:26:49.772Z,84.64
2019-03-26T10:27:49.637Z,85.09
2019-03-26T10:28:50.699Z,85.67
2019-03-26T10:29:49.615Z,85.36
2019-03-26T10:30:49.602Z,85.91
2019-03-26T10:31:49.622Z,86.80
2019-03-26T10:32:49.658Z,87.52
2019-03-26T10:33:49.578Z,87.66
2019-03-26T10:34:49.670Z,87.35
2019-03-26T10:35:49.556Z,88.49
2019-03-26T10:36:49.574Z,89.22
2019-03-26T10:37:49.534Z,89.73
2019-03-26T10:38:49.593Z,88.64
2019-03-26T10:39:49.511Z,90.70
2019-03-26T10:40:49.612Z,91.73
2019-03-26T10:41:49.516Z,92.66
2019-03-26T10:42:49.479Z,92.97
2019-03-26T10:43:57.105Z,92.21
2019-03-26T10:44:49.458Z,92.55
2019-03-26T10:46:04.087Z,90.91
2019-03-26T10:46:49.466Z,91.94
2019-03-26T10:47:52.114Z,92.25
2019-03-26T10:48:49.434Z,92.35
2019-03-26T10:49:57.007Z,92.35
2019-03-26T10:50:49.405Z,92.66
2019-03-26T10:51:57.071Z,93.49
2019-03-26T10:52:49.372Z,94.00
2019-03-26T10:53:49.366Z,93.34
2019-03-26T10:54:49.355Z,93.18
2019-03-26T10:55:50.376Z,92.97
2019-03-26T10:56:49.368Z,92.97
2019-03-26T10:58:04.064Z,93.49
2019-03-26T10:58:49.308Z,93.07
2019-03-26T10:59:49.303Z,93.49
2019-03-26T11:00:49.294Z,93.49
2019-03-26T11:01:49.397Z,93.59
2019-03-26T11:02:49.270Z,94.42
2019-03-26T11:03:49.354Z,94.21
2019-03-26T11:04:49.245Z,93.59
2019-03-26T11:05:49.237Z,94.31
2019-03-26T11:06:58.134Z,94.31
2019-03-26T11:07:49.221Z,94.52
2019-03-26T11:08:49.280Z,94.21
2019-03-26T11:09:49.198Z,94.52
2019-03-26T11:10:49.298Z,93.59
2019-03-26T11:11:49.204Z,94.21
2019-03-26T11:12:50.239Z,94.42
2019-03-26T11:13:49.156Z,94.10
2019-03-26T11:14:49.221Z,94.52
2019-03-26T11:15:49.121Z,93.90
2019-03-26T11:16:49.156Z,94.31
2019-03-26T11:17:49.116Z,93.90
2019-03-26T11:18:49.237Z,94.52
2019-03-26T11:19:49.090Z,94.82
2019-03-26T11:21:01.814Z,94.93
2019-03-26T11:21:50.087Z,94.35
2019-03-26T11:22:49.063Z,94.35
2019-03-26T11:23:49.050Z,94.77
2019-03-26T11:24:49.191Z,94.77
2019-03-26T11:25:49.034Z,94.97
2019-03-26T11:26:49.192Z,95.12
